sensor_id;sensor_type;location;lat;lon;timestamp;temperature;humidity
13231;DHT22;6681;53.254;10.398;2023-08-07T00:00:34;16.10;20.40
13231;DHT22;6681;53.254;10.398;2023-08-07T00:02:59;16.00;23.70
13231;DHT22;6681;53.254;10.398;2023-08-07T00:05:25;16.00;24.00
13231;DHT22;6681;53.254;10.398;2023-08-07T00:07:51;16.00;23.80
13231;DHT22;6681;53.254;10.398;2023-08-07T00:10:17;16.00;24.90
13231;DHT22;6681;53.254;10.398;2023-08-07T00:12:42;16.00;23.90
13231;DHT22;6681;53.254;10.398;2023-08-07T00:15:09;16.00;26.10
13231;DHT22;6681;53.254;10.398;2023-08-07T00:17:35;16.00;25.60
13231;DHT22;6681;53.254;10.398;2023-08-07T00:20:01;16.00;25.50
13231;DHT22;6681;53.254;10.398;2023-08-07T00:22:26;16.00;24.70
13231;DHT22;6681;53.254;10.398;2023-08-07T00:24:52;16.00;24.20
13231;DHT22;6681;53.254;10.398;2023-08-07T00:27:18;16.00;26.00
13231;DHT22;6681;53.254;10.398;2023-08-07T00:29:43;16.00;26.40
13231;DHT22;6681;53.254;10.398;2023-08-07T00:32:09;15.90;25.10
13231;DHT22;6681;53.254;10.398;2023-08-07T00:34:35;15.90;25.20
13231;DHT22;6681;53.254;10.398;2023-08-07T00:37:00;15.90;25.70
13231;DHT22;6681;53.254;10.398;2023-08-07T00:39:26;15.90;25.90
13231;DHT22;6681;53.254;10.398;2023-08-07T00:41:51;15.90;25.60
13231;DHT22;6681;53.254;10.398;2023-08-07T00:44:17;15.80;26.90
13231;DHT22;6681;53.254;10.398;2023-08-07T00:46:43;15.80;27.20
13231;DHT22;6681;53.254;10.398;2023-08-07T00:49:09;15.80;26.20
13231;DHT22;6681;53.254;10.398;2023-08-07T00:51:37;15.80;27.00
13231;DHT22;6681;53.254;10.398;2023-08-07T00:54:04;15.80;26.80
13231;DHT22;6681;53.254;10.398;2023-08-07T00:56:31;15.90;26.60
13231;DHT22;6681;53.254;10.398;2023-08-07T00:58:58;15.90;25.70
13231;DHT22;6681;53.254;10.398;2023-08-07T01:01:24;15.80;24.40
13231;DHT22;6681;53.254;10.398;2023-08-07T01:03:50;15.80;24.90
13231;DHT22;6681;53.254;10.398;2023-08-07T01:06:16;15.80;23.50
13231;DHT22;6681;53.254;10.398;2023-08-07T01:08:42;15.80;23.70
13231;DHT22;6681;53.254;10.398;2023-08-07T01:11:44;15.80;24.50
13231;DHT22;6681;53.254;10.398;2023-08-07T01:14:39;15.80;22.70
13231;DHT22;6681;53.254;10.398;2023-08-07T01:17:07;15.80;23.70
13231;DHT22;6681;53.254;10.398;2023-08-07T01:19:34;15.80;21.90
13231;DHT22;6681;53.254;10.398;2023-08-07T01:22:11;15.80;20.80
13231;DHT22;6681;53.254;10.398;2023-08-07T01:24:38;15.80;22.90
13231;DHT22;6681;53.254;10.398;2023-08-07T01:29:52;15.70;24.10
13231;DHT22;6681;53.254;10.398;2023-08-07T01:35:16;15.70;22.10
13231;DHT22;6681;53.254;10.398;2023-08-07T01:37:43;15.60;23.70
13231;DHT22;6681;53.254;10.398;2023-08-07T01:40:12;15.60;21.20
13231;DHT22;6681;53.254;10.398;2023-08-07T01:42:39;15.60;22.70
13231;DHT22;6681;53.254;10.398;2023-08-07T01:45:05;15.60;23.50
13231;DHT22;6681;53.254;10.398;2023-08-07T01:47:30;15.60;23.50
13231;DHT22;6681;53.254;10.398;2023-08-07T01:49:56;15.60;22.50
13231;DHT22;6681;53.254;10.398;2023-08-07T01:52:22;15.60;23.60
13231;DHT22;6681;53.254;10.398;2023-08-07T01:54:48;15.60;23.70
13231;DHT22;6681;53.254;10.398;2023-08-07T01:57:13;15.60;22.80
13231;DHT22;6681;53.254;10.398;2023-08-07T01:59:39;15.50;23.90
13231;DHT22;6681;53.254;10.398;2023-08-07T02:02:04;15.50;26.30
13231;DHT22;6681;53.254;10.398;2023-08-07T02:04:30;15.40;24.50
13231;DHT22;6681;53.254;10.398;2023-08-07T02:06:56;15.40;26.90
13231;DHT22;6681;53.254;10.398;2023-08-07T02:09:22;15.40;24.20
13231;DHT22;6681;53.254;10.398;2023-08-07T02:11:48;15.40;25.30
13231;DHT22;6681;53.254;10.398;2023-08-07T02:14:13;15.40;25.20
13231;DHT22;6681;53.254;10.398;2023-08-07T02:16:39;15.40;25.90
13231;DHT22;6681;53.254;10.398;2023-08-07T02:19:04;13.70;24.80
13231;DHT22;6681;53.254;10.398;2023-08-07T02:21:31;15.30;26.50
13231;DHT22;6681;53.254;10.398;2023-08-07T02:23:56;15.40;27.40
13231;DHT22;6681;53.254;10.398;2023-08-07T02:26:22;15.30;27.00
13231;DHT22;6681;53.254;10.398;2023-08-07T02:28:47;15.30;26.70
13231;DHT22;6681;53.254;10.398;2023-08-07T02:31:13;15.30;27.50
13231;DHT22;6681;53.254;10.398;2023-08-07T02:33:39;15.30;30.00
13231;DHT22;6681;53.254;10.398;2023-08-07T02:36:06;15.30;28.90
13231;DHT22;6681;53.254;10.398;2023-08-07T02:38:32;15.30;28.70
13231;DHT22;6681;53.254;10.398;2023-08-07T02:40:57;15.30;30.90
13231;DHT22;6681;53.254;10.398;2023-08-07T02:43:23;15.30;30.30
13231;DHT22;6681;53.254;10.398;2023-08-07T02:45:49;15.30;29.70
13231;DHT22;6681;53.254;10.398;2023-08-07T02:48:14;15.20;29.60
13231;DHT22;6681;53.254;10.398;2023-08-07T02:50:40;15.20;29.30
13231;DHT22;6681;53.254;10.398;2023-08-07T02:53:05;15.20;30.20
13231;DHT22;6681;53.254;10.398;2023-08-07T02:55:31;15.20;30.70
13231;DHT22;6681;53.254;10.398;2023-08-07T02:57:57;15.20;30.70
13231;DHT22;6681;53.254;10.398;2023-08-07T03:00:22;15.20;29.50
13231;DHT22;6681;53.254;10.398;2023-08-07T03:02:48;15.20;28.70
13231;DHT22;6681;53.254;10.398;2023-08-07T03:05:13;15.20;29.60
13231;DHT22;6681;53.254;10.398;2023-08-07T03:07:39;15.20;28.70
13231;DHT22;6681;53.254;10.398;2023-08-07T03:10:05;15.20;28.70
13231;DHT22;6681;53.254;10.398;2023-08-07T03:12:32;15.20;28.30
13231;DHT22;6681;53.254;10.398;2023-08-07T03:14:58;15.20;27.80
13231;DHT22;6681;53.254;10.398;2023-08-07T03:17:24;15.10;27.30
13231;DHT22;6681;53.254;10.398;2023-08-07T03:19:49;15.20;26.90
13231;DHT22;6681;53.254;10.398;2023-08-07T03:22:15;15.20;25.90
13231;DHT22;6681;53.254;10.398;2023-08-07T03:24:40;15.10;25.60
13231;DHT22;6681;53.254;10.398;2023-08-07T03:27:06;15.20;27.10
13231;DHT22;6681;53.254;10.398;2023-08-07T03:29:32;15.20;26.80
13231;DHT22;6681;53.254;10.398;2023-08-07T03:31:57;15.10;26.60
13231;DHT22;6681;53.254;10.398;2023-08-07T03:34:23;15.10;26.80
13231;DHT22;6681;53.254;10.398;2023-08-07T03:36:48;15.10;28.20
13231;DHT22;6681;53.254;10.398;2023-08-07T03:39:14;15.10;28.40
13231;DHT22;6681;53.254;10.398;2023-08-07T03:41:40;15.10;28.00
13231;DHT22;6681;53.254;10.398;2023-08-07T03:44:05;15.10;29.70
13231;DHT22;6681;53.254;10.398;2023-08-07T03:46:32;15.20;29.90
13231;DHT22;6681;53.254;10.398;2023-08-07T03:48:57;15.10;29.80
13231;DHT22;6681;53.254;10.398;2023-08-07T03:51:23;15.20;30.50
13231;DHT22;6681;53.254;10.398;2023-08-07T03:53:49;15.10;32.20
13231;DHT22;6681;53.254;10.398;2023-08-07T03:56:15;15.00;30.90
13231;DHT22;6681;53.254;10.398;2023-08-07T03:58:41;15.00;33.60
13231;DHT22;6681;53.254;10.398;2023-08-07T04:01:06;15.00;33.20
13231;DHT22;6681;53.254;10.398;2023-08-07T04:03:32;15.00;33.20
13231;DHT22;6681;53.254;10.398;2023-08-07T04:05:57;15.00;35.10
13231;DHT22;6681;53.254;10.398;2023-08-07T04:08:25;15.00;33.30
13231;DHT22;6681;53.254;10.398;2023-08-07T04:11:02;15.00;33.90
13231;DHT22;6681;53.254;10.398;2023-08-07T04:13:28;15.00;31.60
13231;DHT22;6681;53.254;10.398;2023-08-07T04:15:54;15.00;30.70
13231;DHT22;6681;53.254;10.398;2023-08-07T04:18:20;15.00;30.90
13231;DHT22;6681;53.254;10.398;2023-08-07T04:20:50;15.10;31.70
13231;DHT22;6681;53.254;10.398;2023-08-07T04:23:16;15.00;31.50
13231;DHT22;6681;53.254;10.398;2023-08-07T04:25:42;15.10;32.10
13231;DHT22;6681;53.254;10.398;2023-08-07T04:28:07;15.10;31.30
13231;DHT22;6681;53.254;10.398;2023-08-07T04:30:33;15.10;32.80
13231;DHT22;6681;53.254;10.398;2023-08-07T04:32:59;15.10;29.70
13231;DHT22;6681;53.254;10.398;2023-08-07T04:35:25;15.10;30.00
13231;DHT22;6681;53.254;10.398;2023-08-07T04:37:50;15.10;31.40
13231;DHT22;6681;53.254;10.398;2023-08-07T04:40:16;15.10;32.80
13231;DHT22;6681;53.254;10.398;2023-08-07T04:42:41;15.10;32.60
13231;DHT22;6681;53.254;10.398;2023-08-07T04:45:07;15.10;31.70
13231;DHT22;6681;53.254;10.398;2023-08-07T04:47:33;15.10;32.30
13231;DHT22;6681;53.254;10.398;2023-08-07T04:49:58;15.20;35.40
13231;DHT22;6681;53.254;10.398;2023-08-07T04:52:24;15.10;34.80
13231;DHT22;6681;53.254;10.398;2023-08-07T04:54:50;15.20;34.40
13231;DHT22;6681;53.254;10.398;2023-08-07T04:57:15;15.10;33.10
13231;DHT22;6681;53.254;10.398;2023-08-07T04:59:41;15.20;34.70
13231;DHT22;6681;53.254;10.398;2023-08-07T05:02:07;15.20;33.20
13231;DHT22;6681;53.254;10.398;2023-08-07T05:04:32;15.20;33.00
13231;DHT22;6681;53.254;10.398;2023-08-07T05:06:58;15.20;35.20
13231;DHT22;6681;53.254;10.398;2023-08-07T05:09:23;15.30;36.30
13231;DHT22;6681;53.254;10.398;2023-08-07T05:11:49;15.20;35.90
13231;DHT22;6681;53.254;10.398;2023-08-07T05:14:15;15.20;35.40
13231;DHT22;6681;53.254;10.398;2023-08-07T05:16:40;15.20;36.90
13231;DHT22;6681;53.254;10.398;2023-08-07T05:19:06;15.20;37.00
13231;DHT22;6681;53.254;10.398;2023-08-07T05:21:31;15.20;35.00
13231;DHT22;6681;53.254;10.398;2023-08-07T05:23:57;15.30;36.50
13231;DHT22;6681;53.254;10.398;2023-08-07T05:26:23;15.30;34.70
13231;DHT22;6681;53.254;10.398;2023-08-07T05:28:48;15.30;34.20
13231;DHT22;6681;53.254;10.398;2023-08-07T05:31:14;15.30;36.80
13231;DHT22;6681;53.254;10.398;2023-08-07T05:33:40;15.30;36.90
13231;DHT22;6681;53.254;10.398;2023-08-07T05:36:06;15.30;36.40
13231;DHT22;6681;53.254;10.398;2023-08-07T05:38:32;15.30;39.00
13231;DHT22;6681;53.254;10.398;2023-08-07T05:40:58;15.40;38.60
13231;DHT22;6681;53.254;10.398;2023-08-07T05:43:23;15.40;38.40
13231;DHT22;6681;53.254;10.398;2023-08-07T05:45:49;15.40;36.90
13231;DHT22;6681;53.254;10.398;2023-08-07T05:48:15;15.50;38.60
13231;DHT22;6681;53.254;10.398;2023-08-07T05:50:42;15.50;37.60
13231;DHT22;6681;53.254;10.398;2023-08-07T05:53:08;15.50;36.00
13231;DHT22;6681;53.254;10.398;2023-08-07T05:55:34;15.50;38.40
13231;DHT22;6681;53.254;10.398;2023-08-07T05:57:59;15.50;39.20
13231;DHT22;6681;53.254;10.398;2023-08-07T06:00:25;15.60;36.70
13231;DHT22;6681;53.254;10.398;2023-08-07T06:02:51;15.60;36.10
13231;DHT22;6681;53.254;10.398;2023-08-07T06:05:16;15.60;34.30
13231;DHT22;6681;53.254;10.398;2023-08-07T06:07:42;15.70;37.80
13231;DHT22;6681;53.254;10.398;2023-08-07T06:10:08;15.70;35.40
13231;DHT22;6681;53.254;10.398;2023-08-07T06:12:34;15.70;37.60
13231;DHT22;6681;53.254;10.398;2023-08-07T06:14:59;15.70;36.50
13231;DHT22;6681;53.254;10.398;2023-08-07T06:17:25;15.80;36.50
13231;DHT22;6681;53.254;10.398;2023-08-07T06:19:51;15.80;34.60
13231;DHT22;6681;53.254;10.398;2023-08-07T06:22:17;15.80;34.10
13231;DHT22;6681;53.254;10.398;2023-08-07T06:24:42;15.90;34.50
13231;DHT22;6681;53.254;10.398;2023-08-07T06:27:08;15.90;30.60
13231;DHT22;6681;53.254;10.398;2023-08-07T06:29:34;15.90;31.30
13231;DHT22;6681;53.254;10.398;2023-08-07T06:31:59;15.90;34.50
13231;DHT22;6681;53.254;10.398;2023-08-07T06:34:25;16.00;33.80
13231;DHT22;6681;53.254;10.398;2023-08-07T06:36:51;16.00;31.90
13231;DHT22;6681;53.254;10.398;2023-08-07T06:39:16;16.00;31.40
13231;DHT22;6681;53.254;10.398;2023-08-07T06:41:42;16.00;28.50
13231;DHT22;6681;53.254;10.398;2023-08-07T06:44:07;16.00;28.00
13231;DHT22;6681;53.254;10.398;2023-08-07T06:46:33;16.10;26.50
13231;DHT22;6681;53.254;10.398;2023-08-07T06:48:59;16.10;26.50
13231;DHT22;6681;53.254;10.398;2023-08-07T06:51:24;16.10;26.30
13231;DHT22;6681;53.254;10.398;2023-08-07T06:53:50;16.10;27.20
13231;DHT22;6681;53.254;10.398;2023-08-07T06:56:15;16.20;24.70
13231;DHT22;6681;53.254;10.398;2023-08-07T06:58:41;16.20;24.10
13231;DHT22;6681;53.254;10.398;2023-08-07T07:01:07;16.20;22.20
13231;DHT22;6681;53.254;10.398;2023-08-07T07:03:32;16.30;22.50
13231;DHT22;6681;53.254;10.398;2023-08-07T07:05:58;16.30;25.10
13231;DHT22;6681;53.254;10.398;2023-08-07T07:08:24;16.40;21.70
13231;DHT22;6681;53.254;10.398;2023-08-07T07:10:49;16.50;23.20
13231;DHT22;6681;53.254;10.398;2023-08-07T07:13:15;16.50;17.30
13231;DHT22;6681;53.254;10.398;2023-08-07T07:15:40;16.50;16.40
13231;DHT22;6681;53.254;10.398;2023-08-07T07:18:06;16.50;22.60
13231;DHT22;6681;53.254;10.398;2023-08-07T07:20:32;16.60;19.20
13231;DHT22;6681;53.254;10.398;2023-08-07T07:22:57;16.60;14.60
13231;DHT22;6681;53.254;10.398;2023-08-07T07:25:23;16.60;14.90
13231;DHT22;6681;53.254;10.398;2023-08-07T07:27:49;16.70;17.20
13231;DHT22;6681;53.254;10.398;2023-08-07T07:30:14;16.70;13.20
13231;DHT22;6681;53.254;10.398;2023-08-07T07:32:40;16.70;9.70
13231;DHT22;6681;53.254;10.398;2023-08-07T07:35:06;16.70;13.10
13231;DHT22;6681;53.254;10.398;2023-08-07T07:37:32;16.70;8.10
13231;DHT22;6681;53.254;10.398;2023-08-07T07:39:57;16.70;9.70
13231;DHT22;6681;53.254;10.398;2023-08-07T07:42:23;16.70;8.60
13231;DHT22;6681;53.254;10.398;2023-08-07T07:44:48;16.70;7.30
13231;DHT22;6681;53.254;10.398;2023-08-07T07:47:14;16.60;14.50
13231;DHT22;6681;53.254;10.398;2023-08-07T07:49:45;16.60;18.40
13231;DHT22;6681;53.254;10.398;2023-08-07T07:52:15;16.60;22.30
13231;DHT22;6681;53.254;10.398;2023-08-07T07:54:40;16.50;20.60
13231;DHT22;6681;53.254;10.398;2023-08-07T07:57:06;16.40;27.70
13231;DHT22;6681;53.254;10.398;2023-08-07T07:59:32;16.40;26.20
13231;DHT22;6681;53.254;10.398;2023-08-07T08:01:57;16.50;25.10
13231;DHT22;6681;53.254;10.398;2023-08-07T08:04:23;16.60;24.50
13231;DHT22;6681;53.254;10.398;2023-08-07T08:06:49;16.60;26.40
13231;DHT22;6681;53.254;10.398;2023-08-07T08:09:14;16.70;20.90
13231;DHT22;6681;53.254;10.398;2023-08-07T08:11:41;16.70;21.00
13231;DHT22;6681;53.254;10.398;2023-08-07T08:14:06;16.70;23.40
13231;DHT22;6681;53.254;10.398;2023-08-07T08:16:32;16.70;22.50
13231;DHT22;6681;53.254;10.398;2023-08-07T08:18:57;16.70;19.90
13231;DHT22;6681;53.254;10.398;2023-08-07T08:21:23;16.60;13.10
13231;DHT22;6681;53.254;10.398;2023-08-07T08:23:49;16.30;5.00
13231;DHT22;6681;53.254;10.398;2023-08-07T08:26:14;16.10;12.20
13231;DHT22;6681;53.254;10.398;2023-08-07T08:28:40;15.90;21.50
13231;DHT22;6681;53.254;10.398;2023-08-07T08:31:05;15.90;28.80
13231;DHT22;6681;53.254;10.398;2023-08-07T08:33:31;16.00;30.80
13231;DHT22;6681;53.254;10.398;2023-08-07T08:35:57;16.00;32.00
13231;DHT22;6681;53.254;10.398;2023-08-07T08:38:23;16.20;40.30
13231;DHT22;6681;53.254;10.398;2023-08-07T08:40:51;16.30;40.10
13231;DHT22;6681;53.254;10.398;2023-08-07T08:43:18;16.40;36.50
13231;DHT22;6681;53.254;10.398;2023-08-07T08:45:44;16.40;35.20
13231;DHT22;6681;53.254;10.398;2023-08-07T08:48:12;16.30;24.30
13231;DHT22;6681;53.254;10.398;2023-08-07T08:50:43;16.30;12.50
13231;DHT22;6681;53.254;10.398;2023-08-07T08:53:09;16.20;24.00
13231;DHT22;6681;53.254;10.398;2023-08-07T08:55:35;16.20;20.60
13231;DHT22;6681;53.254;10.398;2023-08-07T08:58:01;16.10;22.70
13231;DHT22;6681;53.254;10.398;2023-08-07T09:00:27;16.20;24.70
13231;DHT22;6681;53.254;10.398;2023-08-07T09:02:55;16.20;25.20
13231;DHT22;6681;53.254;10.398;2023-08-07T09:05:21;16.30;20.90
13231;DHT22;6681;53.254;10.398;2023-08-07T09:07:49;16.30;20.80
13231;DHT22;6681;53.254;10.398;2023-08-07T09:10:16;16.40;23.60
13231;DHT22;6681;53.254;10.398;2023-08-07T09:12:49;16.50;23.50
13231;DHT22;6681;53.254;10.398;2023-08-07T09:15:19;16.50;17.00
13231;DHT22;6681;53.254;10.398;2023-08-07T09:17:45;16.50;8.90
13231;DHT22;6681;53.254;10.398;2023-08-07T09:20:12;16.60;16.60
13231;DHT22;6681;53.254;10.398;2023-08-07T09:22:42;16.70;12.20
13231;DHT22;6681;53.254;10.398;2023-08-07T09:25:08;16.90;12.20
13231;DHT22;6681;53.254;10.398;2023-08-07T09:27:37;17.00;7.40
13231;DHT22;6681;53.254;10.398;2023-08-07T09:30:05;17.10;1.00
13231;DHT22;6681;53.254;10.398;2023-08-07T09:32:32;17.10;1.00
13231;DHT22;6681;53.254;10.398;2023-08-07T09:34:57;17.20;1.00
13231;DHT22;6681;53.254;10.398;2023-08-07T09:37:23;17.30;1.00
13231;DHT22;6681;53.254;10.398;2023-08-07T09:39:49;17.30;1.00
13231;DHT22;6681;53.254;10.398;2023-08-07T09:42:17;17.20;1.00
13231;DHT22;6681;53.254;10.398;2023-08-07T09:44:43;17.20;1.00
13231;DHT22;6681;53.254;10.398;2023-08-07T09:47:15;17.20;1.00
13231;DHT22;6681;53.254;10.398;2023-08-07T09:49:41;17.10;1.00
13231;DHT22;6681;53.254;10.398;2023-08-07T09:52:08;17.10;1.00
13231;DHT22;6681;53.254;10.398;2023-08-07T09:54:35;17.20;1.00
13231;DHT22;6681;53.254;10.398;2023-08-07T09:57:04;17.30;1.00
13231;DHT22;6681;53.254;10.398;2023-08-07T09:59:32;17.40;1.00
13231;DHT22;6681;53.254;10.398;2023-08-07T10:01:59;17.60;1.00
13231;DHT22;6681;53.254;10.398;2023-08-07T10:04:26;17.60;1.00
13231;DHT22;6681;53.254;10.398;2023-08-07T10:06:53;17.50;1.00
13231;DHT22;6681;53.254;10.398;2023-08-07T10:09:19;17.50;1.00
13231;DHT22;6681;53.254;10.398;2023-08-07T10:11:45;17.50;1.00
13231;DHT22;6681;53.254;10.398;2023-08-07T10:14:12;17.60;1.00
13231;DHT22;6681;53.254;10.398;2023-08-07T10:16:40;17.70;1.00
13231;DHT22;6681;53.254;10.398;2023-08-07T10:19:07;17.80;1.00
13231;DHT22;6681;53.254;10.398;2023-08-07T10:21:35;17.90;1.00
13231;DHT22;6681;53.254;10.398;2023-08-07T10:24:04;17.90;1.00
13231;DHT22;6681;53.254;10.398;2023-08-07T10:26:31;17.90;1.00
13231;DHT22;6681;53.254;10.398;2023-08-07T10:28:58;17.90;1.00
13231;DHT22;6681;53.254;10.398;2023-08-07T10:31:26;17.90;1.00
13231;DHT22;6681;53.254;10.398;2023-08-07T10:33:53;18.00;1.00
13231;DHT22;6681;53.254;10.398;2023-08-07T10:36:18;17.90;1.00
13231;DHT22;6681;53.254;10.398;2023-08-07T10:38:45;17.70;1.00
13231;DHT22;6681;53.254;10.398;2023-08-07T10:41:14;17.60;1.00
13231;DHT22;6681;53.254;10.398;2023-08-07T10:43:46;17.40;1.00
13231;DHT22;6681;53.254;10.398;2023-08-07T10:46:19;17.20;1.00
13231;DHT22;6681;53.254;10.398;2023-08-07T10:48:54;17.10;1.00
13231;DHT22;6681;53.254;10.398;2023-08-07T10:51:28;16.90;1.00
13231;DHT22;6681;53.254;10.398;2023-08-07T10:53:55;16.90;1.00
13231;DHT22;6681;53.254;10.398;2023-08-07T10:56:35;17.00;1.00
13231;DHT22;6681;53.254;10.398;2023-08-07T10:59:10;17.20;1.00
13231;DHT22;6681;53.254;10.398;2023-08-07T11:01:40;17.30;1.00
13231;DHT22;6681;53.254;10.398;2023-08-07T11:06:35;17.70;1.00
13231;DHT22;6681;53.254;10.398;2023-08-07T11:09:06;17.80;1.00
13231;DHT22;6681;53.254;10.398;2023-08-07T11:11:43;17.90;1.00
13231;DHT22;6681;53.254;10.398;2023-08-07T11:14:16;17.90;1.00
13231;DHT22;6681;53.254;10.398;2023-08-07T11:16:43;17.90;1.00
13231;DHT22;6681;53.254;10.398;2023-08-07T11:19:09;18.00;1.00
13231;DHT22;6681;53.254;10.398;2023-08-07T11:21:35;18.00;1.00
13231;DHT22;6681;53.254;10.398;2023-08-07T11:24:02;18.10;1.00
13231;DHT22;6681;53.254;10.398;2023-08-07T11:26:27;18.20;1.00
13231;DHT22;6681;53.254;10.398;2023-08-07T11:28:56;18.20;1.00
13231;DHT22;6681;53.254;10.398;2023-08-07T11:31:23;18.20;1.00
13231;DHT22;6681;53.254;10.398;2023-08-07T11:33:55;18.20;1.00
13231;DHT22;6681;53.254;10.398;2023-08-07T11:36:23;18.20;1.00
13231;DHT22;6681;53.254;10.398;2023-08-07T11:38:48;18.20;1.00
13231;DHT22;6681;53.254;10.398;2023-08-07T11:41:16;18.20;1.00
13231;DHT22;6681;53.254;10.398;2023-08-07T11:43:42;18.20;1.00
13231;DHT22;6681;53.254;10.398;2023-08-07T11:46:10;18.40;1.00
13231;DHT22;6681;53.254;10.398;2023-08-07T11:48:40;18.50;1.00
13231;DHT22;6681;53.254;10.398;2023-08-07T11:51:08;18.40;1.00
13231;DHT22;6681;53.254;10.398;2023-08-07T11:53:38;18.20;1.00
13231;DHT22;6681;53.254;10.398;2023-08-07T11:56:09;18.10;1.00
13231;DHT22;6681;53.254;10.398;2023-08-07T11:58:41;18.00;1.00
13231;DHT22;6681;53.254;10.398;2023-08-07T12:03:38;17.80;1.00
13231;DHT22;6681;53.254;10.398;2023-08-07T12:06:05;17.90;1.00
13231;DHT22;6681;53.254;10.398;2023-08-07T12:08:39;18.10;1.00
13231;DHT22;6681;53.254;10.398;2023-08-07T12:11:06;18.30;1.00
13231;DHT22;6681;53.254;10.398;2023-08-07T12:13:32;18.30;1.00
13231;DHT22;6681;53.254;10.398;2023-08-07T12:16:01;18.20;1.00
13231;DHT22;6681;53.254;10.398;2023-08-07T12:18:30;18.00;1.00
13231;DHT22;6681;53.254;10.398;2023-08-07T12:20:59;17.70;1.00
13231;DHT22;6681;53.254;10.398;2023-08-07T12:23:25;17.60;1.00
13231;DHT22;6681;53.254;10.398;2023-08-07T12:25:51;17.70;1.00
13231;DHT22;6681;53.254;10.398;2023-08-07T12:28:18;17.70;1.00
13231;DHT22;6681;53.254;10.398;2023-08-07T12:30:45;17.90;1.00
13231;DHT22;6681;53.254;10.398;2023-08-07T12:33:12;18.20;1.00
13231;DHT22;6681;53.254;10.398;2023-08-07T12:35:37;18.30;1.00
13231;DHT22;6681;53.254;10.398;2023-08-07T12:38:03;18.50;1.00
13231;DHT22;6681;53.254;10.398;2023-08-07T12:40:32;18.50;1.00
13231;DHT22;6681;53.254;10.398;2023-08-07T12:42:59;18.40;1.00
13231;DHT22;6681;53.254;10.398;2023-08-07T12:45:25;18.20;1.00
13231;DHT22;6681;53.254;10.398;2023-08-07T12:47:50;18.30;1.00
13231;DHT22;6681;53.254;10.398;2023-08-07T12:50:16;18.30;1.00
13231;DHT22;6681;53.254;10.398;2023-08-07T12:52:42;18.30;1.00
13231;DHT22;6681;53.254;10.398;2023-08-07T12:55:08;18.30;1.00
13231;DHT22;6681;53.254;10.398;2023-08-07T12:57:33;18.20;1.00
13231;DHT22;6681;53.254;10.398;2023-08-07T12:59:59;18.10;1.00
13231;DHT22;6681;53.254;10.398;2023-08-07T13:02:25;18.10;1.00
13231;DHT22;6681;53.254;10.398;2023-08-07T13:04:50;18.00;1.00
13231;DHT22;6681;53.254;10.398;2023-08-07T13:07:17;18.00;1.00
13231;DHT22;6681;53.254;10.398;2023-08-07T13:09:43;18.20;1.00
13231;DHT22;6681;53.254;10.398;2023-08-07T13:12:09;18.40;1.00
13231;DHT22;6681;53.254;10.398;2023-08-07T13:14:34;18.70;1.00
13231;DHT22;6681;53.254;10.398;2023-08-07T13:17:00;18.90;1.00
13231;DHT22;6681;53.254;10.398;2023-08-07T13:19:25;19.00;1.00
13231;DHT22;6681;53.254;10.398;2023-08-07T13:21:51;19.20;1.00
13231;DHT22;6681;53.254;10.398;2023-08-07T13:24:16;19.40;1.00
13231;DHT22;6681;53.254;10.398;2023-08-07T13:26:42;19.50;1.00
13231;DHT22;6681;53.254;10.398;2023-08-07T13:29:11;19.40;1.00
13231;DHT22;6681;53.254;10.398;2023-08-07T13:31:37;19.20;1.00
13231;DHT22;6681;53.254;10.398;2023-08-07T13:34:02;18.90;1.00
13231;DHT22;6681;53.254;10.398;2023-08-07T13:36:33;18.70;1.00
13231;DHT22;6681;53.254;10.398;2023-08-07T13:38:59;18.40;1.00
13231;DHT22;6681;53.254;10.398;2023-08-07T13:41:26;18.20;1.00
13231;DHT22;6681;53.254;10.398;2023-08-07T13:43:51;18.10;1.00
13231;DHT22;6681;53.254;10.398;2023-08-07T13:46:17;18.10;1.00
13231;DHT22;6681;53.254;10.398;2023-08-07T13:48:44;18.10;1.00
13231;DHT22;6681;53.254;10.398;2023-08-07T13:51:10;17.90;1.00
13231;DHT22;6681;53.254;10.398;2023-08-07T13:53:36;17.60;1.00
13231;DHT22;6681;53.254;10.398;2023-08-07T13:56:02;17.50;1.00
13231;DHT22;6681;53.254;10.398;2023-08-07T13:58:27;17.40;1.00
13231;DHT22;6681;53.254;10.398;2023-08-07T14:00:53;17.20;1.00
13231;DHT22;6681;53.254;10.398;2023-08-07T14:03:19;17.10;1.00
13231;DHT22;6681;53.254;10.398;2023-08-07T14:05:45;17.00;1.00
13231;DHT22;6681;53.254;10.398;2023-08-07T14:08:11;17.00;1.00
13231;DHT22;6681;53.254;10.398;2023-08-07T14:10:37;17.10;1.00
13231;DHT22;6681;53.254;10.398;2023-08-07T14:13:06;17.30;1.00
13231;DHT22;6681;53.254;10.398;2023-08-07T14:15:32;17.40;1.00
13231;DHT22;6681;53.254;10.398;2023-08-07T14:17:57;17.60;1.00
13231;DHT22;6681;53.254;10.398;2023-08-07T14:20:23;17.60;1.00
13231;DHT22;6681;53.254;10.398;2023-08-07T14:22:50;17.60;1.00
13231;DHT22;6681;53.254;10.398;2023-08-07T14:25:15;17.60;1.00
13231;DHT22;6681;53.254;10.398;2023-08-07T14:27:41;17.70;1.00
13231;DHT22;6681;53.254;10.398;2023-08-07T14:30:07;17.80;1.00
13231;DHT22;6681;53.254;10.398;2023-08-07T14:32:33;17.80;1.00
13231;DHT22;6681;53.254;10.398;2023-08-07T14:34:58;17.80;1.00
13231;DHT22;6681;53.254;10.398;2023-08-07T14:37:24;17.60;1.00
13231;DHT22;6681;53.254;10.398;2023-08-07T14:39:50;17.50;1.00
13231;DHT22;6681;53.254;10.398;2023-08-07T14:42:15;17.50;1.00
13231;DHT22;6681;53.254;10.398;2023-08-07T14:44:41;17.50;1.00
13231;DHT22;6681;53.254;10.398;2023-08-07T14:47:07;17.60;1.00
13231;DHT22;6681;53.254;10.398;2023-08-07T14:49:32;17.60;1.00
13231;DHT22;6681;53.254;10.398;2023-08-07T14:51:58;17.60;1.00
13231;DHT22;6681;53.254;10.398;2023-08-07T14:54:23;17.40;1.00
13231;DHT22;6681;53.254;10.398;2023-08-07T14:56:49;17.40;1.00
13231;DHT22;6681;53.254;10.398;2023-08-07T14:59:15;17.30;1.00
13231;DHT22;6681;53.254;10.398;2023-08-07T15:01:40;17.30;1.00
13231;DHT22;6681;53.254;10.398;2023-08-07T15:04:06;17.10;1.00
13231;DHT22;6681;53.254;10.398;2023-08-07T15:06:32;17.00;1.00
13231;DHT22;6681;53.254;10.398;2023-08-07T15:08:58;16.90;1.00
13231;DHT22;6681;53.254;10.398;2023-08-07T15:11:24;16.80;1.00
13231;DHT22;6681;53.254;10.398;2023-08-07T15:13:50;16.80;1.00
13231;DHT22;6681;53.254;10.398;2023-08-07T15:16:15;16.90;1.00
13231;DHT22;6681;53.254;10.398;2023-08-07T15:18:41;17.10;1.00
13231;DHT22;6681;53.254;10.398;2023-08-07T15:21:07;17.20;1.00
13231;DHT22;6681;53.254;10.398;2023-08-07T15:23:33;17.20;1.00
13231;DHT22;6681;53.254;10.398;2023-08-07T15:25:58;17.30;1.00
13231;DHT22;6681;53.254;10.398;2023-08-07T15:28:25;17.30;1.00
13231;DHT22;6681;53.254;10.398;2023-08-07T15:30:50;17.20;1.00
13231;DHT22;6681;53.254;10.398;2023-08-07T15:33:17;17.20;1.00
13231;DHT22;6681;53.254;10.398;2023-08-07T15:35:43;17.10;1.00
13231;DHT22;6681;53.254;10.398;2023-08-07T15:38:10;17.10;1.00
13231;DHT22;6681;53.254;10.398;2023-08-07T15:40:40;17.20;1.00
13231;DHT22;6681;53.254;10.398;2023-08-07T15:43:07;17.20;1.00